Time;durP1;ratioP1;P1;durP2;ratioP2;P2;SDS_P1;SDS_P2;PMS_P1;PMS_P2;Temp;Humidity;BMP_temperature;BMP_pressure;BME280_temperature;BME280_humidity;BME280_pressure;Samples;Min_cycle;Max_cycle;Signal;HPM_P1;HPM_P2
2021/05/25 00:01:21;;;;;;;0.60;0.40;;;23.50;37.70;;;;;;5013043;28;20100;-61
2021/05/25 00:03:46;;;;;;;0.60;0.45;;;23.50;37.70;;;;;;5014106;28;20030;-62
2021/05/25 00:06:12;;;;;;;0.73;0.40;;;23.50;37.70;;;;;;5013915;28;20108;-61
2021/05/25 00:08:38;;;;;;;0.93;0.50;;;23.50;37.70;;;;;;5014463;28;20105;-62
2021/05/25 00:11:05;;;;;;;0.40;0.40;;;23.50;37.70;;;;;;5014701;28;20030;-61
2021/05/25 00:13:31;;;;;;;0.90;0.50;;;23.40;37.60;;;;;;5014970;28;20426;-58
2021/05/25 00:15:58;;;;;;;0.82;0.60;;;23.40;37.60;;;;;;5018349;28;20033;-62
2021/05/25 00:18:24;;;;;;;0.88;0.45;;;23.40;37.70;;;;;;5019174;28;20022;-60
2021/05/25 00:20:50;;;;;;;0.82;0.50;;;23.40;37.70;;;;;;5017619;28;20346;-58
2021/05/25 00:23:16;;;;;;;0.70;0.60;;;23.40;37.70;;;;;;5018503;28;20468;-60
2021/05/25 00:25:43;;;;;;;0.43;0.40;;;23.40;37.70;;;;;;5017273;28;20038;-61
2021/05/25 00:28:08;;;;;;;1.02;0.50;;;23.40;37.70;;;;;;5018249;28;20037;-62
2021/05/25 00:30:34;;;;;;;0.93;0.60;;;23.40;38.30;;;;;;5017920;28;20088;-61
2021/05/25 00:33:00;;;;;;;0.60;0.40;;;23.30;37.60;;;;;;5018440;28;20061;-60
2021/05/25 00:35:28;;;;;;;0.82;0.65;;;23.30;37.60;;;;;;5017569;28;20369;-61
2021/05/25 00:37:54;;;;;;;0.77;0.45;;;23.30;37.60;;;;;;5018216;28;20028;-60
2021/05/25 00:40:20;;;;;;;0.63;0.40;;;23.30;37.60;;;;;;5017955;28;20117;-60
2021/05/25 00:42:46;;;;;;;0.50;0.40;;;23.30;37.60;;;;;;5017747;28;20068;-61
2021/05/25 00:45:15;;;;;;;0.73;0.40;;;23.30;37.60;;;;;;5017904;28;20048;-61
2021/05/25 00:47:42;;;;;;;0.77;0.70;;;23.30;37.60;;;;;;5018451;28;20107;-61
2021/05/25 00:50:13;;;;;;;1.02;0.38;;;23.30;37.70;;;;;;5018380;28;20069;-58
2021/05/25 00:52:50;;;;;;;0.35;0.35;;;23.30;37.70;;;;;;5018247;28;20059;-60
2021/05/25 00:55:23;;;;;;;0.70;0.52;;;23.30;37.70;;;;;;5017104;28;20091;-64
2021/05/25 00:57:50;;;;;;;0.77;0.40;;;23.30;37.70;;;;;;5016873;28;20053;-62
2021/05/25 01:00:20;;;;;;;0.50;0.50;;;23.20;37.60;;;;;;5017496;28;20033;-61
2021/05/25 01:02:46;;;;;;;0.80;0.63;;;23.20;37.60;;;;;;5017261;28;20318;-61
2021/05/25 01:05:14;;;;;;;0.43;0.43;;;23.20;37.60;;;;;;5017696;28;20053;-60
2021/05/25 01:07:40;;;;;;;0.85;0.52;;;23.20;37.70;;;;;;5016225;28;20454;-60
2021/05/25 01:10:08;;;;;;;0.52;0.40;;;23.20;37.70;;;;;;5017216;28;20037;-60
2021/05/25 01:12:48;;;;;;;0.95;0.60;;;23.20;37.70;;;;;;5016947;28;20066;-62
2021/05/25 01:15:16;;;;;;;0.80;0.50;;;23.20;37.70;;;;;;5017295;28;20361;-61
2021/05/25 01:17:42;;;;;;;1.08;0.50;;;23.20;37.70;;;;;;5017030;28;20469;-62
2021/05/25 01:20:09;;;;;;;0.85;0.57;;;23.20;37.70;;;;;;5016387;28;20046;-60
2021/05/25 01:22:34;;;;;;;1.48;0.70;;;23.20;37.70;;;;;;5015779;28;20349;-62
2021/05/25 01:25:07;;;;;;;0.95;0.65;;;23.20;37.70;;;;;;5016113;28;20021;-60
2021/05/25 01:27:32;;;;;;;0.52;0.40;;;23.20;37.70;;;;;;5015950;28;20480;-60
2021/05/25 01:29:58;;;;;;;0.50;0.40;;;23.20;37.70;;;;;;5017161;28;20034;-60
2021/05/25 01:32:24;;;;;;;0.50;0.40;;;23.10;37.60;;;;;;5016981;28;20045;-60
2021/05/25 01:34:50;;;;;;;0.57;0.55;;;23.10;37.60;;;;;;5016331;28;20040;-62
2021/05/25 01:37:15;;;;;;;0.77;0.50;;;23.10;37.60;;;;;;5016927;28;20038;-61
2021/05/25 01:39:42;;;;;;;0.70;0.60;;;23.10;37.60;;;;;;5015908;28;20034;-61
2021/05/25 01:42:08;;;;;;;0.90;0.50;;;23.10;37.60;;;;;;5016343;28;20346;-61
2021/05/25 01:44:37;;;;;;;1.05;0.40;;;23.10;37.60;;;;;;5016529;28;20073;-62
2021/05/25 01:47:03;;;;;;;0.40;0.38;;;23.10;37.60;;;;;;5015753;28;20125;-61
2021/05/25 01:49:29;;;;;;;1.05;0.60;;;23.10;37.60;;;;;;4996785;28;20058;-61
2021/05/25 01:51:55;;;;;;;0.55;0.40;;;23.10;37.50;;;;;;5013074;28;20080;-60
2021/05/25 01:54:20;;;;;;;0.50;0.30;;;23.00;38.10;;;;;;5016622;28;20018;-61
2021/05/25 01:56:46;;;;;;;1.15;0.65;;;23.00;37.50;;;;;;5015645;28;20041;-60
2021/05/25 01:59:12;;;;;;;0.60;0.45;;;23.00;37.40;;;;;;5015610;28;20037;-61
2021/05/25 02:01:38;;;;;;;0.65;0.55;;;23.00;37.40;;;;;;5014690;28;20072;-62
2021/05/25 02:04:04;;;;;;;1.13;0.70;;;23.00;37.40;;;;;;5016825;28;20040;-61
2021/05/25 02:06:30;;;;;;;1.20;0.50;;;23.00;37.40;;;;;;5015964;28;20030;-60
2021/05/25 02:08:57;;;;;;;0.50;0.40;;;23.00;37.30;;;;;;5016190;28;20104;-61
2021/05/25 02:11:23;;;;;;;0.50;0.40;;;23.00;37.30;;;;;;5015735;28;20044;-62
2021/05/25 02:13:49;;;;;;;0.40;0.30;;;23.00;37.30;;;;;;5016428;28;20033;-61
2021/05/25 02:16:18;;;;;;;0.80;0.50;;;22.90;37.30;;;;;;5015339;28;20029;-61
2021/05/25 02:18:46;;;;;;;0.40;0.32;;;22.90;37.20;;;;;;5016408;28;20049;-61
2021/05/25 02:21:13;;;;;;;1.10;0.50;;;22.90;37.20;;;;;;5016174;28;20038;-62
2021/05/25 02:23:40;;;;;;;1.95;0.70;;;22.90;37.20;;;;;;5015825;28;20030;-61
2021/05/25 02:26:06;;;;;;;0.70;0.40;;;22.90;37.20;;;;;;5013053;28;20119;-60
2021/05/25 02:28:33;;;;;;;0.70;0.30;;;22.90;37.20;;;;;;5015173;28;20564;-62
2021/05/25 02:30:59;;;;;;;0.30;0.25;;;22.90;37.10;;;;;;5015361;28;20349;-62
2021/05/25 02:33:26;;;;;;;0.47;0.40;;;22.90;37.10;;;;;;5015707;28;20063;-61
2021/05/25 02:35:54;;;;;;;0.60;0.50;;;22.90;37.00;;;;;;5015789;28;20104;-62
2021/05/25 02:38:20;;;;;;;0.50;0.40;;;22.90;37.00;;;;;;5015434;28;20037;-62
2021/05/25 02:40:48;;;;;;;0.75;0.40;;;22.90;37.00;;;;;;5014862;28;20370;-61
2021/05/25 02:43:15;;;;;;;0.93;0.47;;;22.90;37.00;;;;;;5015230;28;20460;-60
2021/05/25 02:45:41;;;;;;;0.85;0.52;;;22.80;36.90;;;;;;5014177;28;20173;-61
2021/05/25 02:48:08;;;;;;;0.65;0.40;;;22.80;36.90;;;;;;5014514;28;20076;-62
2021/05/25 02:50:34;;;;;;;0.68;0.38;;;22.80;36.90;;;;;;5015130;28;20529;-59
2021/05/25 02:53:01;;;;;;;1.35;0.60;;;22.80;36.80;;;;;;5015916;28;20040;-60
2021/05/25 02:55:28;;;;;;;0.30;0.30;;;22.80;36.80;;;;;;5015343;28;20041;-64
2021/05/25 02:57:55;;;;;;;0.85;0.40;;;22.80;36.80;;;;;;5013919;28;20438;-61
2021/05/25 03:00:25;;;;;;;0.65;0.40;;;22.80;36.80;;;;;;4995976;28;20049;-61
2021/05/25 03:02:51;;;;;;;0.40;0.32;;;22.80;36.80;;;;;;4995364;28;20045;-61
2021/05/25 03:05:18;;;;;;;0.88;0.50;;;22.80;36.80;;;;;;5014147;28;20033;-60
2021/05/25 03:07:44;;;;;;;0.55;0.40;;;22.70;36.70;;;;;;4997573;28;20350;-61
2021/05/25 03:10:14;;;;;;;1.23;0.50;;;22.80;36.80;;;;;;5014725;28;20545;-61
2021/05/25 03:12:40;;;;;;;0.93;0.60;;;22.70;36.60;;;;;;5015077;28;20040;-61
2021/05/25 03:15:08;;;;;;;0.30;0.30;;;22.80;36.70;;;;;;5014060;28;20026;-61
2021/05/25 03:17:34;;;;;;;0.60;0.40;;;22.70;36.70;;;;;;5015141;28;20045;-62
2021/05/25 03:20:01;;;;;;;1.52;0.50;;;22.70;36.60;;;;;;5012847;28;20055;-61
2021/05/25 03:22:27;;;;;;;1.13;0.57;;;22.70;36.60;;;;;;5013704;28;20049;-61
2021/05/25 03:24:53;;;;;;;0.60;0.40;;;22.70;36.70;;;;;;5013538;28;20033;-62
2021/05/25 03:27:18;;;;;;;0.50;0.40;;;22.70;36.70;;;;;;5014510;28;20046;-61
2021/05/25 03:29:44;;;;;;;1.20;0.60;;;22.70;36.80;;;;;;5013010;28;20438;-61
2021/05/25 03:32:10;;;;;;;2.05;0.60;;;22.70;36.70;;;;;;5014862;28;20477;-62
2021/05/25 03:34:36;;;;;;;0.65;0.50;;;22.60;36.60;;;;;;5014474;28;20026;-63
2021/05/25 03:37:02;;;;;;;0.90;0.50;;;22.70;36.60;;;;;;5014609;28;20441;-61
2021/05/25 03:39:28;;;;;;;1.02;0.63;;;22.60;36.60;;;;;;5014653;28;20034;-61
2021/05/25 03:41:54;;;;;;;0.50;0.43;;;22.60;36.50;;;;;;5013873;28;20030;-62
2021/05/25 03:44:20;;;;;;;0.63;0.35;;;22.60;36.50;;;;;;5014476;28;20033;-63
2021/05/25 03:46:46;;;;;;;0.90;0.52;;;22.60;36.50;;;;;;5014704;28;20349;-61
2021/05/25 03:49:12;;;;;;;1.33;0.40;;;22.60;36.50;;;;;;5013835;28;20038;-61
2021/05/25 03:51:38;;;;;;;1.83;0.50;;;22.60;36.50;;;;;;5014166;28;20038;-61
2021/05/25 03:57:14;;;;;;;1.00;0.60;;;22.60;36.50;;;;;;5011634;28;20046;-60
2021/05/25 03:59:39;;;;;;;1.35;0.50;;;22.60;36.50;;;;;;5014169;28;20045;-62
2021/05/25 04:02:05;;;;;;;0.47;0.40;;;22.50;37.10;;;;;;5012813;28;20034;-61
2021/05/25 04:04:32;;;;;;;0.70;0.50;;;22.50;36.50;;;;;;5012886;28;20030;-60
2021/05/25 04:06:57;;;;;;;1.95;0.50;;;22.50;36.50;;;;;;5014227;28;20080;-62
2021/05/25 04:09:23;;;;;;;0.63;0.50;;;22.50;36.50;;;;;;5013643;28;20057;-60
2021/05/25 04:11:49;;;;;;;0.77;0.45;;;22.50;36.50;;;;;;5014238;28;20476;-61
2021/05/25 04:14:15;;;;;;;0.88;0.50;;;22.50;36.50;;;;;;5014055;28;20330;-61
2021/05/25 04:16:41;;;;;;;0.73;0.47;;;22.50;36.50;;;;;;5013632;28;20172;-61
2021/05/25 04:19:07;;;;;;;0.52;0.40;;;22.50;36.50;;;;;;5013969;28;20022;-61
2021/05/25 04:21:33;;;;;;;0.40;0.38;;;22.50;36.50;;;;;;5013977;28;20038;-60
2021/05/25 04:23:59;;;;;;;0.82;0.43;;;22.50;36.50;;;;;;5013059;28;20036;-61
2021/05/25 04:26:27;;;;;;;0.55;0.50;;;22.50;36.50;;;;;;5013696;28;20432;-60
2021/05/25 04:28:53;;;;;;;1.33;0.47;;;22.50;36.50;;;;;;5013784;28;20456;-62
2021/05/25 04:31:19;;;;;;;1.02;0.47;;;22.50;36.50;;;;;;5012967;28;20042;-60
2021/05/25 04:33:45;;;;;;;0.65;0.38;;;22.40;36.50;;;;;;5014325;28;20100;-59
2021/05/25 04:36:10;;;;;;;0.43;0.40;;;22.40;36.50;;;;;;5014036;28;20068;-60
2021/05/25 04:38:36;;;;;;;0.93;0.50;;;22.40;36.50;;;;;;5012771;28;20041;-59
2021/05/25 04:41:02;;;;;;;0.80;0.60;;;22.40;36.50;;;;;;5013384;28;20038;-60
2021/05/25 04:43:28;;;;;;;0.38;0.38;;;22.40;36.50;;;;;;5013739;28;20481;-60
2021/05/25 04:45:54;;;;;;;0.47;0.40;;;22.40;36.50;;;;;;5013831;28;20345;-61
2021/05/25 04:48:20;;;;;;;0.30;0.30;;;22.40;36.50;;;;;;5013584;28;20453;-61
2021/05/25 04:50:46;;;;;;;0.55;0.40;;;22.40;36.50;;;;;;5013189;28;20416;-62
2021/05/25 04:53:12;;;;;;;0.90;0.40;;;22.40;36.50;;;;;;5013007;28;20125;-62
2021/05/25 04:55:38;;;;;;;0.77;0.47;;;22.40;36.50;;;;;;5014006;28;20057;-61
2021/05/25 04:58:04;;;;;;;0.82;0.50;;;22.40;36.50;;;;;;5014010;28;20034;-61
2021/05/25 05:00:30;;;;;;;0.77;0.47;;;22.40;36.50;;;;;;5014465;28;20025;-61
2021/05/25 05:02:56;;;;;;;1.00;0.50;;;22.40;36.50;;;;;;5014964;28;20045;-61
2021/05/25 05:05:24;;;;;;;0.80;0.40;;;22.40;36.50;;;;;;5017026;28;20441;-61
2021/05/25 05:07:50;;;;;;;0.70;0.40;;;22.40;36.60;;;;;;5016783;28;20049;-62
2021/05/25 05:10:17;;;;;;;0.82;0.40;;;22.40;36.60;;;;;;5017192;28;20037;-60
2021/05/25 05:12:44;;;;;;;0.70;0.50;;;22.30;36.50;;;;;;5017080;28;20052;-61
2021/05/25 05:15:10;;;;;;;0.70;0.50;;;22.30;36.50;;;;;;5016006;28;20434;-61
2021/05/25 05:17:36;;;;;;;0.73;0.40;;;22.30;36.50;;;;;;5016647;28;20089;-61
2021/05/25 05:20:07;;;;;;;0.70;0.38;;;22.30;36.50;;;;;;5017541;28;20105;-60
2021/05/25 05:22:34;;;;;;;1.13;0.55;;;22.30;36.50;;;;;;5016398;28;20034;-59
2021/05/25 05:25:00;;;;;;;0.73;0.50;;;22.30;36.50;;;;;;5017349;28;20345;-60
2021/05/25 05:27:26;;;;;;;0.47;0.40;;;22.30;36.50;;;;;;5005143;28;20454;-60
2021/05/25 05:29:52;;;;;;;0.32;0.30;;;22.30;36.60;;;;;;4997522;28;20042;-61
2021/05/25 05:32:18;;;;;;;0.95;0.32;;;22.30;36.60;;;;;;5008763;28;20318;-61
2021/05/25 05:34:44;;;;;;;1.20;0.40;;;22.30;36.60;;;;;;5016281;28;20420;-62
2021/05/25 05:37:10;;;;;;;0.68;0.40;;;22.30;36.60;;;;;;5016636;28;20022;-62
2021/05/25 05:39:36;;;;;;;0.50;0.40;;;22.30;36.60;;;;;;5016608;28;20361;-61
2021/05/25 05:42:02;;;;;;;0.60;0.40;;;22.30;36.60;;;;;;5016317;28;20127;-61
2021/05/25 05:44:28;;;;;;;0.80;0.45;;;22.30;36.60;;;;;;5016313;28;20381;-59
2021/05/25 05:46:54;;;;;;;0.52;0.45;;;22.30;36.60;;;;;;5016132;28;20107;-60
2021/05/25 05:49:22;;;;;;;0.60;0.50;;;22.30;36.60;;;;;;5015636;28;20133;-59
2021/05/25 05:51:51;;;;;;;0.98;0.50;;;22.30;36.60;;;;;;5016667;28;20429;-60
2021/05/25 05:54:18;;;;;;;0.65;0.55;;;22.30;36.70;;;;;;5015524;28;20516;-62
2021/05/25 05:56:47;;;;;;;0.57;0.40;;;22.30;36.70;;;;;;5015824;28;20042;-60
2021/05/25 05:59:13;;;;;;;0.88;0.73;;;22.30;36.70;;;;;;5016013;28;20037;-61
2021/05/25 06:01:39;;;;;;;0.70;0.30;;;22.20;36.70;;;;;;5016344;28;20034;-62
2021/05/25 06:04:04;;;;;;;1.02;0.50;;;22.30;36.80;;;;;;5015231;28;20044;-63
2021/05/25 06:06:30;;;;;;;0.90;0.47;;;22.30;36.80;;;;;;5016249;28;20034;-61
2021/05/25 06:08:56;;;;;;;1.27;0.40;;;22.20;36.70;;;;;;5014632;28;20096;-61
2021/05/25 06:11:22;;;;;;;0.55;0.40;;;22.30;36.80;;;;;;5015689;28;20061;-61
2021/05/25 06:13:48;;;;;;;0.38;0.38;;;22.20;36.80;;;;;;5014934;28;20026;-60
2021/05/25 06:16:13;;;;;;;1.13;0.60;;;22.20;36.80;;;;;;5013631;28;20426;-60
2021/05/25 06:18:39;;;;;;;0.30;0.25;;;22.20;36.80;;;;;;5015082;28;20093;-61
2021/05/25 06:21:05;;;;;;;0.68;0.30;;;22.20;36.80;;;;;;5015232;28;20445;-60
2021/05/25 06:23:33;;;;;;;0.50;0.40;;;22.20;36.80;;;;;;5015222;28;20066;-61
2021/05/25 06:26:00;;;;;;;0.65;0.40;;;22.30;36.80;;;;;;5014620;28;20426;-60
2021/05/25 06:28:27;;;;;;;0.80;0.40;;;22.20;36.80;;;;;;5014765;28;20128;-61
2021/05/25 06:30:53;;;;;;;0.60;0.40;;;22.20;36.80;;;;;;5015841;28;20053;-60
2021/05/25 06:33:19;;;;;;;0.93;0.40;;;22.30;36.80;;;;;;5015773;28;20027;-62
2021/05/25 06:35:45;;;;;;;1.20;0.45;;;22.20;36.80;;;;;;5013575;28;20045;-61
2021/05/25 06:38:11;;;;;;;0.40;0.30;;;22.20;36.90;;;;;;5015833;28;20331;-61
2021/05/25 06:40:37;;;;;;;0.90;0.40;;;22.30;36.90;;;;;;5015486;28;20025;-62
2021/05/25 06:43:03;;;;;;;1.73;0.55;;;22.30;37.00;;;;;;5015616;28;20112;-57
2021/05/25 06:45:29;;;;;;;1.58;0.40;;;22.30;37.00;;;;;;5015337;28;20029;-62
2021/05/25 06:47:55;;;;;;;0.45;0.30;;;22.30;37.00;;;;;;5014088;28;20029;-61
2021/05/25 06:50:21;;;;;;;0.82;0.52;;;22.40;37.00;;;;;;5008574;28;20096;-61
2021/05/25 06:52:47;;;;;;;0.93;0.30;;;22.40;36.90;;;;;;5010416;28;20116;-64
2021/05/25 06:55:14;;;;;;;0.52;0.40;;;22.40;36.90;;;;;;5015012;28;20037;-63
2021/05/25 06:57:40;;;;;;;0.80;0.50;;;22.50;36.80;;;;;;5015473;28;20044;-61
2021/05/25 07:00:08;;;;;;;0.90;0.47;;;22.50;36.80;;;;;;5014643;28;20034;-60
2021/05/25 07:02:34;;;;;;;2.40;0.60;;;22.50;36.60;;;;;;5015094;28;20034;-62
2021/05/25 07:05:01;;;;;;;1.20;0.63;;;22.50;36.60;;;;;;5014151;28;20026;-61
2021/05/25 07:07:27;;;;;;;0.73;0.40;;;22.60;36.60;;;;;;5013676;28;20483;-61
2021/05/25 07:09:52;;;;;;;0.82;0.60;;;22.60;36.50;;;;;;5015086;28;20062;-62
2021/05/25 07:12:18;;;;;;;0.90;0.50;;;22.60;36.40;;;;;;5014332;28;20119;-62
2021/05/25 07:14:45;;;;;;;0.95;0.52;;;22.60;36.40;;;;;;5014709;28;20072;-60
2021/05/25 07:17:12;;;;;;;0.63;0.45;;;22.70;36.40;;;;;;5014144;28;20030;-60
2021/05/25 07:19:38;;;;;;;0.98;0.50;;;22.70;36.30;;;;;;5015141;28;20049;-61
2021/05/25 07:22:04;;;;;;;0.63;0.45;;;22.70;36.30;;;;;;5014458;28;20026;-63
2021/05/25 07:24:30;;;;;;;0.88;0.60;;;22.70;36.30;;;;;;4994403;28;20042;-63
2021/05/25 07:26:56;;;;;;;0.60;0.50;;;22.70;36.30;;;;;;5005955;28;20077;-63
2021/05/25 07:29:22;;;;;;;0.80;0.70;;;22.70;36.30;;;;;;5014516;28;20048;-62
2021/05/25 07:31:48;;;;;;;0.65;0.50;;;22.70;36.20;;;;;;5014047;28;20349;-63
2021/05/25 07:34:14;;;;;;;0.70;0.45;;;22.80;36.30;;;;;;5015148;28;20036;-62
2021/05/25 07:36:40;;;;;;;1.48;0.77;;;22.80;36.20;;;;;;5014485;28;20068;-63
2021/05/25 07:39:06;;;;;;;1.13;0.93;;;22.80;36.20;;;;;;5014997;28;20029;-61
2021/05/25 07:41:33;;;;;;;0.47;0.47;;;22.80;36.20;;;;;;5013901;28;20060;-63
2021/05/25 07:43:59;;;;;;;1.20;0.68;;;22.80;36.20;;;;;;5014664;28;20033;-64
2021/05/25 07:46:26;;;;;;;1.00;0.80;;;22.80;36.20;;;;;;5014541;28;20449;-62
2021/05/25 07:48:53;;;;;;;2.22;0.52;;;22.80;36.10;;;;;;5013287;28;20038;-61
2021/05/25 07:51:19;;;;;;;0.60;0.50;;;22.90;36.20;;;;;;5011407;28;20120;-60
2021/05/25 07:53:45;;;;;;;1.67;0.68;;;22.80;36.10;;;;;;5014422;28;20033;-61
2021/05/25 07:56:12;;;;;;;1.00;0.60;;;22.90;36.10;;;;;;5013767;28;20416;-61
2021/05/25 07:58:38;;;;;;;1.10;0.50;;;22.90;36.10;;;;;;5014668;28;20037;-62
2021/05/25 08:01:04;;;;;;;0.70;0.50;;;22.90;36.10;;;;;;5012677;28;20434;-64
2021/05/25 08:03:31;;;;;;;1.02;0.52;;;23.00;36.10;;;;;;5013141;28;20022;-63
2021/05/25 08:06:00;;;;;;;1.30;0.50;;;22.90;36.10;;;;;;5012366;28;20030;-61
2021/05/25 08:08:27;;;;;;;0.63;0.43;;;23.00;36.10;;;;;;5012678;28;20044;-60
2021/05/25 08:10:53;;;;;;;1.00;0.50;;;23.00;36.10;;;;;;5013502;28;20041;-62
2021/05/25 08:13:19;;;;;;;1.23;0.60;;;23.10;36.10;;;;;;5014443;28;20022;-62
2021/05/25 08:15:46;;;;;;;1.10;0.55;;;23.10;36.00;;;;;;5014529;28;20041;-59
2021/05/25 08:20:56;;;;;;;0.98;0.60;;;23.20;35.90;;;;;;5014098;28;20050;-62
2021/05/25 08:23:22;;;;;;;0.80;0.40;;;23.20;35.90;;;;;;5014189;28;20123;-62
2021/05/25 08:25:48;;;;;;;0.40;0.40;;;23.30;35.90;;;;;;5013986;28;20030;-62
2021/05/25 08:28:14;;;;;;;0.65;0.30;;;23.30;35.80;;;;;;5014073;28;20048;-61
2021/05/25 08:30:41;;;;;;;0.80;0.50;;;23.40;35.80;;;;;;5013915;28;20034;-63
2021/05/25 08:33:09;;;;;;;0.38;0.30;;;23.40;35.70;;;;;;4994824;28;20490;-62
2021/05/25 08:35:36;;;;;;;0.30;0.30;;;23.40;35.60;;;;;;5009595;28;20022;-59
2021/05/25 08:38:05;;;;;;;1.33;0.57;;;23.50;35.70;;;;;;5017956;28;20038;-62
2021/05/25 08:40:33;;;;;;;1.02;0.30;;;23.50;35.60;;;;;;5017823;28;20025;-59
2021/05/25 08:43:00;;;;;;;0.70;0.47;;;23.60;35.60;;;;;;5018225;28;20096;-59
2021/05/25 08:45:26;;;;;;;0.98;0.43;;;23.60;35.60;;;;;;5017827;28;20029;-61
2021/05/25 08:47:56;;;;;;;0.55;0.35;;;23.60;35.50;;;;;;5017632;28;20115;-61
2021/05/25 08:50:27;;;;;;;0.30;0.30;;;23.60;35.50;;;;;;5016491;28;20030;-63
2021/05/25 08:52:57;;;;;;;0.50;0.30;;;23.70;35.50;;;;;;5017924;28;20503;-62
2021/05/25 08:55:23;;;;;;;0.55;0.30;;;23.70;35.50;;;;;;5017065;28;20033;-62
2021/05/25 08:57:49;;;;;;;0.85;0.50;;;23.70;35.50;;;;;;5018074;28;20092;-59
2021/05/25 09:00:16;;;;;;;1.60;0.50;;;23.70;35.40;;;;;;5016671;28;20026;-60
2021/05/25 09:02:42;;;;;;;0.40;0.40;;;23.70;35.40;;;;;;5017514;28;20436;-59
2021/05/25 09:05:13;;;;;;;0.60;0.30;;;23.70;35.40;;;;;;5017377;28;20108;-59
2021/05/25 09:07:57;;;;;;;0.85;0.40;;;23.70;35.30;;;;;;5016317;28;20061;-63
2021/05/25 09:10:36;;;;;;;0.73;0.35;;;23.70;35.30;;;;;;5017196;28;20069;-61
2021/05/25 09:13:14;;;;;;;0.75;0.30;;;23.80;35.30;;;;;;5016235;28;20030;-60
2021/05/25 09:15:48;;;;;;;0.77;0.40;;;23.70;35.20;;;;;;5017452;28;20030;-60
2021/05/25 09:18:21;;;;;;;0.65;0.40;;;23.80;35.30;;;;;;5017208;28;20137;-60
2021/05/25 09:20:48;;;;;;;1.17;0.30;;;23.80;35.30;;;;;;5016289;28;20441;-60
2021/05/25 09:23:21;;;;;;;0.77;0.38;;;23.80;35.20;;;;;;5015615;28;20092;-63
2021/05/25 09:26:11;;;;;;;1.55;0.30;;;23.80;35.10;;;;;;5014735;28;20026;-61
2021/05/25 09:28:59;;;;;;;0.30;0.30;;;23.80;35.10;;;;;;5015890;28;20038;-61
2021/05/25 09:31:47;;;;;;;0.65;0.38;;;23.80;35.00;;;;;;5003427;28;20041;-61
2021/05/25 09:34:15;;;;;;;0.82;0.40;;;23.80;35.00;;;;;;5017060;28;20314;-61
2021/05/25 09:37:09;;;;;;;1.00;0.40;;;23.80;35.70;;;;;;5015496;28;20041;-59
2021/05/25 09:39:35;;;;;;;0.93;0.35;;;23.80;35.00;;;;;;5017595;28;20048;-61
2021/05/25 09:42:03;;;;;;;0.20;0.20;;;23.70;35.00;;;;;;5015077;28;20105;-64
2021/05/25 09:44:29;;;;;;;3.05;0.40;;;23.70;35.00;;;;;;5013617;28;20030;-61
2021/05/25 09:46:58;;;;;;;0.90;0.40;;;23.70;35.00;;;;;;5013283;28;20475;-62
2021/05/25 09:49:24;;;;;;;1.38;0.60;;;23.70;35.10;;;;;;5014266;28;20107;-62
2021/05/25 09:52:04;;;;;;;0.60;0.38;;;23.70;35.20;;;;;;5014316;28;20034;-61
2021/05/25 09:54:31;;;;;;;0.60;0.38;;;23.70;35.30;;;;;;5014365;28;20029;-56
2021/05/25 09:57:02;;;;;;;0.68;0.40;;;23.70;35.40;;;;;;5014682;28;20093;-59
2021/05/25 09:59:32;;;;;;;1.38;0.50;;;23.70;35.60;;;;;;5014856;28;20029;-62
2021/05/25 10:02:20;;;;;;;0.63;0.40;;;23.70;35.60;;;;;;5014425;28;20049;-62
2021/05/25 10:05:01;;;;;;;0.93;0.40;;;23.80;35.80;;;;;;5014147;28;20117;-61
2021/05/25 10:07:28;;;;;;;0.77;0.45;;;23.80;35.90;;;;;;5014238;28;20598;-61
2021/05/25 10:09:57;;;;;;;0.85;0.40;;;23.70;35.90;;;;;;5013476;28;20114;-63
2021/05/25 10:12:28;;;;;;;0.52;0.30;;;23.70;35.90;;;;;;5014572;28;20030;-63
2021/05/25 10:14:54;;;;;;;1.10;0.40;;;23.70;35.90;;;;;;5013883;28;20029;-62
2021/05/25 10:20:07;;;;;;;0.88;0.40;;;23.70;36.00;;;;;;5013718;28;20085;-61
2021/05/25 10:22:35;;;;;;;1.58;0.50;;;23.70;36.10;;;;;;5014907;28;20495;-64
2021/05/25 10:25:02;;;;;;;0.57;0.32;;;23.70;36.10;;;;;;5013198;28;20041;-51
2021/05/25 10:27:29;;;;;;;1.10;0.60;;;23.70;36.20;;;;;;5011100;28;20424;-63
2021/05/25 10:29:55;;;;;;;1.05;0.47;;;23.70;36.20;;;;;;5014166;28;20069;-62
2021/05/25 10:32:22;;;;;;;1.08;0.45;;;23.70;36.30;;;;;;5012778;28;20065;-61
2021/05/25 10:34:51;;;;;;;0.47;0.40;;;23.70;36.40;;;;;;5013183;28;20034;-63
2021/05/25 10:37:18;;;;;;;1.77;0.70;;;23.70;36.40;;;;;;5014089;28;20452;-62
2021/05/25 10:39:45;;;;;;;1.20;0.47;;;23.70;36.40;;;;;;5013972;28;20457;-62
2021/05/25 10:42:20;;;;;;;0.30;0.30;;;23.70;36.50;;;;;;5013808;28;20595;-62
2021/05/25 10:44:48;;;;;;;1.10;0.52;;;23.70;36.40;;;;;;5006531;28;20117;-61
2021/05/25 10:47:22;;;;;;;0.60;0.30;;;23.70;36.40;;;;;;5013997;28;20029;-63
2021/05/25 10:52:56;;;;;;;0.63;0.40;;;23.70;36.20;;;;;;5011534;28;20490;-68
2021/05/25 10:55:29;;;;;;;1.20;0.50;;;23.70;36.30;;;;;;5010957;28;20026;-67
2021/05/25 10:57:56;;;;;;;1.83;0.30;;;23.70;36.30;;;;;;5013092;28;20045;-54
2021/05/25 11:00:29;;;;;;;1.88;0.38;;;23.70;36.40;;;;;;5013268;28;20330;-62
2021/05/25 11:03:25;;;;;;;0.68;0.40;;;23.80;36.60;;;;;;4995984;28;20030;-60
2021/05/25 11:06:01;;;;;;;2.90;0.40;;;23.80;36.60;;;;;;5013091;28;20033;-64
2021/05/25 11:08:43;;;;;;;1.05;0.40;;;23.80;36.50;;;;;;5013173;28;20399;-54
2021/05/25 11:11:11;;;;;;;0.98;0.47;;;23.80;36.60;;;;;;5012755;28;20116;-60
2021/05/25 11:13:52;;;;;;;2.35;0.60;;;23.80;36.60;;;;;;5011895;28;20099;-62
2021/05/25 11:16:35;;;;;;;1.00;0.55;;;23.90;36.70;;;;;;5012339;28;20374;-63
2021/05/25 11:24:34;;;;;;;2.80;0.50;;;23.90;37.50;;;;;;5011737;28;20110;-59
2021/05/25 11:27:07;;;;;;;1.33;0.60;;;24.00;38.30;;;;;;4976317;28;20339;-62
2021/05/25 11:29:34;;;;;;;1.92;0.70;;;24.10;38.80;;;;;;5009873;28;21561;-65
2021/05/25 11:32:13;;;;;;;2.65;0.43;;;24.10;39.20;;;;;;5013680;28;20045;-65
2021/05/25 11:34:40;;;;;;;1.48;0.60;;;24.10;39.70;;;;;;5013412;28;20029;-62
2021/05/25 11:37:08;;;;;;;1.80;0.65;;;24.20;39.90;;;;;;5012784;28;20373;-63
2021/05/25 11:39:35;;;;;;;0.93;0.40;;;24.20;40.00;;;;;;5012730;28;20057;-65
2021/05/25 11:42:05;;;;;;;0.90;0.47;;;24.30;40.00;;;;;;5012967;28;20041;-62
2021/05/25 11:44:44;;;;;;;1.20;0.40;;;24.30;39.90;;;;;;5009502;28;20029;-57
2021/05/25 11:47:11;;;;;;;1.60;0.63;;;24.40;39.60;;;;;;5011564;28;20080;-60
2021/05/25 11:49:42;;;;;;;1.33;0.47;;;24.40;39.30;;;;;;5011811;28;20038;-60
2021/05/25 11:52:25;;;;;;;0.75;0.43;;;24.40;38.90;;;;;;5012415;28;20034;-52
2021/05/25 11:54:54;;;;;;;1.30;0.50;;;24.40;38.60;;;;;;5012800;28;20036;-51
2021/05/25 11:57:34;;;;;;;0.50;0.40;;;24.40;38.40;;;;;;5011991;28;20037;-61
2021/05/25 12:00:06;;;;;;;1.83;0.50;;;24.40;38.10;;;;;;5009059;28;20044;-60
2021/05/25 12:02:41;;;;;;;1.20;0.60;;;24.40;37.90;;;;;;5011667;28;20480;-63
2021/05/25 12:05:18;;;;;;;1.13;0.40;;;24.40;37.70;;;;;;5008646;28;20033;-58
2021/05/25 12:07:55;;;;;;;1.40;0.40;;;24.40;37.50;;;;;;5009448;28;20034;-55
2021/05/25 12:10:35;;;;;;;0.50;0.30;;;24.40;37.40;;;;;;5009793;28;20081;-58
2021/05/25 12:13:08;;;;;;;1.00;0.40;;;24.40;37.20;;;;;;5008215;28;20512;-59
2021/05/25 12:15:51;;;;;;;1.77;0.60;;;24.40;37.10;;;;;;5011067;28;20338;-60
2021/05/25 12:18:25;;;;;;;1.42;0.60;;;24.40;36.90;;;;;;5007983;28;20088;-60
2021/05/25 12:20:56;;;;;;;1.40;0.47;;;24.40;36.70;;;;;;5009092;28;20084;-59
2021/05/25 12:23:28;;;;;;;1.13;0.40;;;24.40;36.50;;;;;;5010681;28;20054;-55
2021/05/25 12:25:55;;;;;;;0.40;0.30;;;24.40;36.30;;;;;;5007915;28;20037;-59
2021/05/25 12:28:31;;;;;;;1.45;0.50;;;24.40;36.10;;;;;;5011998;28;20105;-61
2021/05/25 12:30:58;;;;;;;0.55;0.32;;;24.40;35.90;;;;;;5011930;28;20033;-61
2021/05/25 12:33:31;;;;;;;0.20;0.20;;;24.40;35.70;;;;;;5010317;28;20030;-61
2021/05/25 12:36:17;;;;;;;0.90;0.50;;;24.40;35.50;;;;;;5010883;28;20342;-60
2021/05/25 12:39:06;;;;;;;0.40;0.32;;;24.50;35.30;;;;;;5011014;28;20069;-62
2021/05/25 12:41:46;;;;;;;0.95;0.40;;;24.40;35.00;;;;;;5012088;28;20057;-62
2021/05/25 12:44:19;;;;;;;0.95;0.30;;;24.50;35.00;;;;;;5011028;28;20044;-59
2021/05/25 12:47:07;;;;;;;0.75;0.38;;;24.40;34.90;;;;;;5010392;28;20026;-60
2021/05/25 12:49:45;;;;;;;1.50;0.50;;;24.50;34.80;;;;;;5010173;28;20053;-60
2021/05/25 12:52:34;;;;;;;0.40;0.40;;;24.40;34.90;;;;;;5010389;28;20075;-61
2021/05/25 12:55:07;;;;;;;1.10;0.50;;;24.50;35.00;;;;;;5012108;28;20057;-61
2021/05/25 12:57:49;;;;;;;1.08;0.60;;;24.40;35.00;;;;;;5012011;28;20571;-64
2021/05/25 13:00:30;;;;;;;1.15;0.40;;;24.50;34.90;;;;;;5009980;28;20092;-60
2021/05/25 13:03:00;;;;;;;0.98;0.32;;;24.50;34.90;;;;;;5012410;28;20049;-61
2021/05/25 13:05:36;;;;;;;1.90;0.40;;;24.50;34.90;;;;;;5010788;28;20053;-55
2021/05/25 13:08:12;;;;;;;2.80;0.20;;;24.50;34.90;;;;;;5008452;28;20033;-52
2021/05/25 13:10:44;;;;;;;0.38;0.30;;;24.50;34.80;;;;;;5009868;28;20116;-61
2021/05/25 13:13:25;;;;;;;0.32;0.20;;;24.60;34.80;;;;;;5010307;28;20480;-61